sensor_id;sensor_type;location;lat;lon;timestamp;P1;durP1;ratioP1;P2;durP2;ratioP2
37339;SDS011;23223;51.006;7.610;2022-08-19T00:00:20;19.65;;;17.63;;
37339;SDS011;23223;51.006;7.610;2022-08-19T00:02:46;20.63;;;18.40;;
37339;SDS011;23223;51.006;7.610;2022-08-19T00:05:13;19.55;;;17.52;;
37339;SDS011;23223;51.006;7.610;2022-08-19T00:07:41;18.75;;;16.80;;
37339;SDS011;23223;51.006;7.610;2022-08-19T00:10:08;21.48;;;18.40;;
37339;SDS011;23223;51.006;7.610;2022-08-19T00:12:35;24.25;;;18.40;;
37339;SDS011;23223;51.006;7.610;2022-08-19T00:15:03;23.80;;;19.17;;
37339;SDS011;23223;51.006;7.610;2022-08-19T00:17:37;23.73;;;18.70;;
37339;SDS011;23223;51.006;7.610;2022-08-19T00:20:04;25.17;;;18.55;;
37339;SDS011;23223;51.006;7.610;2022-08-19T00:22:31;29.75;;;20.35;;
37339;SDS011;23223;51.006;7.610;2022-08-19T00:24:57;24.63;;;19.50;;
37339;SDS011;23223;51.006;7.610;2022-08-19T00:27:24;21.38;;;19.10;;
37339;SDS011;23223;51.006;7.610;2022-08-19T00:29:50;22.15;;;19.75;;
37339;SDS011;23223;51.006;7.610;2022-08-19T00:32:16;22.75;;;20.55;;
37339;SDS011;23223;51.006;7.610;2022-08-19T00:34:42;25.00;;;20.02;;
37339;SDS011;23223;51.006;7.610;2022-08-19T00:37:09;24.10;;;21.10;;
37339;SDS011;23223;51.006;7.610;2022-08-19T00:39:35;23.33;;;20.45;;
37339;SDS011;23223;51.006;7.610;2022-08-19T00:42:01;28.60;;;21.90;;
37339;SDS011;23223;51.006;7.610;2022-08-19T00:44:28;24.50;;;21.88;;
37339;SDS011;23223;51.006;7.610;2022-08-19T00:46:56;23.48;;;20.92;;
37339;SDS011;23223;51.006;7.610;2022-08-19T00:49:25;24.67;;;22.05;;
37339;SDS011;23223;51.006;7.610;2022-08-19T00:51:55;26.38;;;22.70;;
37339;SDS011;23223;51.006;7.610;2022-08-19T00:54:30;24.10;;;21.42;;
37339;SDS011;23223;51.006;7.610;2022-08-19T00:56:58;24.77;;;22.00;;
37339;SDS011;23223;51.006;7.610;2022-08-19T00:59:26;24.83;;;21.75;;
37339;SDS011;23223;51.006;7.610;2022-08-19T01:01:54;23.17;;;20.70;;
37339;SDS011;23223;51.006;7.610;2022-08-19T01:04:20;23.75;;;20.73;;
37339;SDS011;23223;51.006;7.610;2022-08-19T01:06:46;25.40;;;20.42;;
37339;SDS011;23223;51.006;7.610;2022-08-19T01:09:11;24.52;;;20.65;;
37339;SDS011;23223;51.006;7.610;2022-08-19T01:11:39;26.95;;;20.83;;
37339;SDS011;23223;51.006;7.610;2022-08-19T01:14:08;23.27;;;20.75;;
37339;SDS011;23223;51.006;7.610;2022-08-19T01:16:35;23.75;;;18.90;;
37339;SDS011;23223;51.006;7.610;2022-08-19T01:19:02;23.10;;;19.85;;
37339;SDS011;23223;51.006;7.610;2022-08-19T01:21:37;19.33;;;17.33;;
37339;SDS011;23223;51.006;7.610;2022-08-19T01:24:09;21.90;;;19.15;;
37339;SDS011;23223;51.006;7.610;2022-08-19T01:26:38;19.90;;;17.73;;
37339;SDS011;23223;51.006;7.610;2022-08-19T01:29:07;23.35;;;18.58;;
37339;SDS011;23223;51.006;7.610;2022-08-19T01:31:35;20.83;;;18.60;;
37339;SDS011;23223;51.006;7.610;2022-08-19T01:34:02;18.73;;;16.30;;
37339;SDS011;23223;51.006;7.610;2022-08-19T01:36:34;16.55;;;14.85;;
37339;SDS011;23223;51.006;7.610;2022-08-19T01:39:05;20.45;;;17.23;;
37339;SDS011;23223;51.006;7.610;2022-08-19T01:41:33;21.92;;;18.00;;
37339;SDS011;23223;51.006;7.610;2022-08-19T01:43:59;19.52;;;17.45;;
37339;SDS011;23223;51.006;7.610;2022-08-19T01:46:28;21.50;;;18.60;;
37339;SDS011;23223;51.006;7.610;2022-08-19T01:48:54;20.92;;;17.70;;
37339;SDS011;23223;51.006;7.610;2022-08-19T01:51:20;15.32;;;13.75;;
37339;SDS011;23223;51.006;7.610;2022-08-19T01:53:49;20.17;;;17.50;;
37339;SDS011;23223;51.006;7.610;2022-08-19T01:56:16;19.80;;;17.70;;
37339;SDS011;23223;51.006;7.610;2022-08-19T01:58:44;24.50;;;18.35;;
37339;SDS011;23223;51.006;7.610;2022-08-19T02:01:16;20.92;;;18.65;;
37339;SDS011;23223;51.006;7.610;2022-08-19T02:03:42;19.58;;;17.02;;
37339;SDS011;23223;51.006;7.610;2022-08-19T02:06:08;18.90;;;16.90;;
37339;SDS011;23223;51.006;7.610;2022-08-19T02:08:35;19.25;;;15.60;;
37339;SDS011;23223;51.006;7.610;2022-08-19T02:11:02;23.52;;;18.60;;
37339;SDS011;23223;51.006;7.610;2022-08-19T02:13:29;24.98;;;19.58;;
37339;SDS011;23223;51.006;7.610;2022-08-19T02:15:55;22.73;;;19.08;;
37339;SDS011;23223;51.006;7.610;2022-08-19T02:18:20;22.17;;;18.95;;
37339;SDS011;23223;51.006;7.610;2022-08-19T02:20:46;22.40;;;19.17;;
37339;SDS011;23223;51.006;7.610;2022-08-19T02:29:56;17.65;;;15.75;;
37339;SDS011;23223;51.006;7.610;2022-08-19T02:32:22;20.55;;;18.42;;
37339;SDS011;23223;51.006;7.610;2022-08-19T02:34:48;18.42;;;16.52;;
37339;SDS011;23223;51.006;7.610;2022-08-19T02:37:14;22.98;;;17.27;;
37339;SDS011;23223;51.006;7.610;2022-08-19T02:39:58;20.48;;;17.13;;
37339;SDS011;23223;51.006;7.610;2022-08-19T02:42:24;20.33;;;18.08;;
37339;SDS011;23223;51.006;7.610;2022-08-19T02:44:50;20.75;;;17.90;;
37339;SDS011;23223;51.006;7.610;2022-08-19T02:47:20;22.73;;;18.90;;
37339;SDS011;23223;51.006;7.610;2022-08-19T02:49:46;24.30;;;17.88;;
37339;SDS011;23223;51.006;7.610;2022-08-19T02:52:14;21.80;;;18.58;;
37339;SDS011;23223;51.006;7.610;2022-08-19T02:54:40;22.25;;;19.27;;
37339;SDS011;23223;51.006;7.610;2022-08-19T02:57:07;22.50;;;19.60;;
37339;SDS011;23223;51.006;7.610;2022-08-19T02:59:33;20.88;;;17.98;;
37339;SDS011;23223;51.006;7.610;2022-08-19T03:01:59;22.50;;;17.45;;
37339;SDS011;23223;51.006;7.610;2022-08-19T03:04:25;19.45;;;17.42;;
37339;SDS011;23223;51.006;7.610;2022-08-19T03:06:51;20.65;;;18.25;;
37339;SDS011;23223;51.006;7.610;2022-08-19T03:09:18;21.48;;;17.85;;
37339;SDS011;23223;51.006;7.610;2022-08-19T03:11:45;22.27;;;19.10;;
37339;SDS011;23223;51.006;7.610;2022-08-19T03:14:11;15.50;;;13.90;;
37339;SDS011;23223;51.006;7.610;2022-08-19T03:16:42;22.50;;;18.08;;
37339;SDS011;23223;51.006;7.610;2022-08-19T03:19:15;19.02;;;17.02;;
37339;SDS011;23223;51.006;7.610;2022-08-19T03:21:42;20.30;;;17.48;;
37339;SDS011;23223;51.006;7.610;2022-08-19T03:24:10;19.88;;;17.88;;
37339;SDS011;23223;51.006;7.610;2022-08-19T03:26:40;20.30;;;17.67;;
37339;SDS011;23223;51.006;7.610;2022-08-19T03:29:08;20.58;;;17.75;;
37339;SDS011;23223;51.006;7.610;2022-08-19T03:31:36;22.63;;;19.10;;
37339;SDS011;23223;51.006;7.610;2022-08-19T03:34:03;20.30;;;18.20;;
37339;SDS011;23223;51.006;7.610;2022-08-19T03:36:28;21.67;;;18.85;;
37339;SDS011;23223;51.006;7.610;2022-08-19T03:38:56;25.95;;;18.95;;
37339;SDS011;23223;51.006;7.610;2022-08-19T03:41:24;19.73;;;17.63;;
37339;SDS011;23223;51.006;7.610;2022-08-19T03:43:56;21.20;;;18.88;;
37339;SDS011;23223;51.006;7.610;2022-08-19T03:46:23;20.63;;;18.25;;
37339;SDS011;23223;51.006;7.610;2022-08-19T03:48:52;20.10;;;17.98;;
37339;SDS011;23223;51.006;7.610;2022-08-19T03:51:23;22.90;;;19.25;;
37339;SDS011;23223;51.006;7.610;2022-08-19T03:53:55;20.58;;;18.48;;
37339;SDS011;23223;51.006;7.610;2022-08-19T03:56:22;25.70;;;19.60;;
37339;SDS011;23223;51.006;7.610;2022-08-19T03:58:48;20.75;;;18.55;;
37339;SDS011;23223;51.006;7.610;2022-08-19T04:01:17;25.38;;;18.88;;
37339;SDS011;23223;51.006;7.610;2022-08-19T04:03:45;21.35;;;19.05;;
37339;SDS011;23223;51.006;7.610;2022-08-19T04:06:16;21.73;;;17.75;;
37339;SDS011;23223;51.006;7.610;2022-08-19T04:08:47;22.83;;;18.88;;
37339;SDS011;23223;51.006;7.610;2022-08-19T04:11:16;22.35;;;18.30;;
37339;SDS011;23223;51.006;7.610;2022-08-19T04:13:45;21.38;;;18.38;;
37339;SDS011;23223;51.006;7.610;2022-08-19T04:16:12;25.95;;;19.08;;
37339;SDS011;23223;51.006;7.610;2022-08-19T04:18:39;21.23;;;17.48;;
37339;SDS011;23223;51.006;7.610;2022-08-19T04:21:06;24.70;;;18.05;;
37339;SDS011;23223;51.006;7.610;2022-08-19T04:23:33;20.30;;;17.63;;
37339;SDS011;23223;51.006;7.610;2022-08-19T04:26:02;22.20;;;16.35;;
37339;SDS011;23223;51.006;7.610;2022-08-19T04:28:28;21.98;;;18.35;;
37339;SDS011;23223;51.006;7.610;2022-08-19T04:30:54;20.60;;;18.30;;
37339;SDS011;23223;51.006;7.610;2022-08-19T04:33:22;19.48;;;13.80;;
37339;SDS011;23223;51.006;7.610;2022-08-19T04:35:50;31.17;;;18.00;;
37339;SDS011;23223;51.006;7.610;2022-08-19T04:38:19;23.92;;;18.13;;
37339;SDS011;23223;51.006;7.610;2022-08-19T04:40:49;21.00;;;18.80;;
37339;SDS011;23223;51.006;7.610;2022-08-19T04:43:35;17.83;;;16.02;;
37339;SDS011;23223;51.006;7.610;2022-08-19T04:46:04;18.02;;;16.20;;
37339;SDS011;23223;51.006;7.610;2022-08-19T04:48:32;22.23;;;16.08;;
37339;SDS011;23223;51.006;7.610;2022-08-19T04:50:58;22.80;;;16.80;;
37339;SDS011;23223;51.006;7.610;2022-08-19T04:53:25;21.85;;;18.48;;
37339;SDS011;23223;51.006;7.610;2022-08-19T04:55:55;24.27;;;17.30;;
37339;SDS011;23223;51.006;7.610;2022-08-19T04:58:23;16.55;;;14.85;;
37339;SDS011;23223;51.006;7.610;2022-08-19T05:00:51;19.35;;;16.40;;
37339;SDS011;23223;51.006;7.610;2022-08-19T05:03:18;26.38;;;17.50;;
37339;SDS011;23223;51.006;7.610;2022-08-19T05:05:45;19.80;;;17.70;;
37339;SDS011;23223;51.006;7.610;2022-08-19T05:08:15;20.98;;;17.63;;
37339;SDS011;23223;51.006;7.610;2022-08-19T05:10:44;30.67;;;16.98;;
37339;SDS011;23223;51.006;7.610;2022-08-19T05:13:17;24.00;;;17.67;;
37339;SDS011;23223;51.006;7.610;2022-08-19T05:15:44;18.55;;;16.52;;
37339;SDS011;23223;51.006;7.610;2022-08-19T05:18:19;21.00;;;17.00;;
37339;SDS011;23223;51.006;7.610;2022-08-19T05:21:07;20.90;;;18.67;;
37339;SDS011;23223;51.006;7.610;2022-08-19T05:23:57;24.30;;;18.25;;
37339;SDS011;23223;51.006;7.610;2022-08-19T05:26:24;31.15;;;17.55;;
37339;SDS011;23223;51.006;7.610;2022-08-19T05:28:54;25.13;;;19.27;;
37339;SDS011;23223;51.006;7.610;2022-08-19T05:31:20;24.45;;;18.27;;
37339;SDS011;23223;51.006;7.610;2022-08-19T05:33:47;23.27;;;18.88;;
37339;SDS011;23223;51.006;7.610;2022-08-19T05:36:13;21.88;;;18.65;;
37339;SDS011;23223;51.006;7.610;2022-08-19T05:38:39;24.80;;;17.98;;
37339;SDS011;23223;51.006;7.610;2022-08-19T05:41:06;29.67;;;18.35;;
37339;SDS011;23223;51.006;7.610;2022-08-19T05:43:33;35.55;;;19.58;;
37339;SDS011;23223;51.006;7.610;2022-08-19T05:45:59;22.10;;;18.40;;
37339;SDS011;23223;51.006;7.610;2022-08-19T05:48:26;25.13;;;17.35;;
37339;SDS011;23223;51.006;7.610;2022-08-19T05:50:52;25.92;;;19.65;;
37339;SDS011;23223;51.006;7.610;2022-08-19T05:53:18;32.40;;;17.42;;
37339;SDS011;23223;51.006;7.610;2022-08-19T05:55:44;20.35;;;15.82;;
37339;SDS011;23223;51.006;7.610;2022-08-19T05:58:10;22.95;;;17.48;;
37339;SDS011;23223;51.006;7.610;2022-08-19T06:00:36;22.75;;;17.67;;
37339;SDS011;23223;51.006;7.610;2022-08-19T06:03:03;22.02;;;14.90;;
37339;SDS011;23223;51.006;7.610;2022-08-19T06:05:30;20.65;;;16.77;;
37339;SDS011;23223;51.006;7.610;2022-08-19T06:07:56;22.88;;;18.73;;
37339;SDS011;23223;51.006;7.610;2022-08-19T06:10:24;25.20;;;17.83;;
37339;SDS011;23223;51.006;7.610;2022-08-19T06:12:51;23.10;;;15.80;;
37339;SDS011;23223;51.006;7.610;2022-08-19T06:15:17;20.13;;;15.27;;
37339;SDS011;23223;51.006;7.610;2022-08-19T06:17:43;13.98;;;12.57;;
37339;SDS011;23223;51.006;7.610;2022-08-19T06:20:11;26.13;;;16.42;;
37339;SDS011;23223;51.006;7.610;2022-08-19T06:22:42;19.80;;;15.25;;
37339;SDS011;23223;51.006;7.610;2022-08-19T06:25:11;17.42;;;14.65;;
37339;SDS011;23223;51.006;7.610;2022-08-19T06:27:37;21.52;;;16.60;;
37339;SDS011;23223;51.006;7.610;2022-08-19T06:30:04;19.73;;;14.88;;
37339;SDS011;23223;51.006;7.610;2022-08-19T06:32:31;16.73;;;13.95;;
37339;SDS011;23223;51.006;7.610;2022-08-19T06:34:57;13.93;;;11.68;;
37339;SDS011;23223;51.006;7.610;2022-08-19T06:37:23;21.77;;;14.40;;
37339;SDS011;23223;51.006;7.610;2022-08-19T06:39:49;21.60;;;16.10;;
37339;SDS011;23223;51.006;7.610;2022-08-19T06:42:16;15.27;;;12.38;;
37339;SDS011;23223;51.006;7.610;2022-08-19T06:44:45;21.05;;;14.45;;
37339;SDS011;23223;51.006;7.610;2022-08-19T06:47:13;12.73;;;11.52;;
37339;SDS011;23223;51.006;7.610;2022-08-19T06:49:42;16.48;;;12.55;;
37339;SDS011;23223;51.006;7.610;2022-08-19T06:52:09;12.90;;;10.77;;
37339;SDS011;23223;51.006;7.610;2022-08-19T06:54:39;18.02;;;12.77;;
37339;SDS011;23223;51.006;7.610;2022-08-19T06:57:09;18.35;;;14.15;;
37339;SDS011;23223;51.006;7.610;2022-08-19T06:59:40;19.63;;;15.80;;
37339;SDS011;23223;51.006;7.610;2022-08-19T07:02:05;21.27;;;16.10;;
37339;SDS011;23223;51.006;7.610;2022-08-19T07:04:32;20.10;;;16.15;;
37339;SDS011;23223;51.006;7.610;2022-08-19T07:07:10;15.25;;;11.23;;
37339;SDS011;23223;51.006;7.610;2022-08-19T07:09:38;19.38;;;16.17;;
37339;SDS011;23223;51.006;7.610;2022-08-19T07:12:06;22.27;;;16.52;;
37339;SDS011;23223;51.006;7.610;2022-08-19T07:14:34;15.57;;;12.20;;
37339;SDS011;23223;51.006;7.610;2022-08-19T07:17:05;13.90;;;12.20;;
37339;SDS011;23223;51.006;7.610;2022-08-19T07:19:33;11.30;;;9.85;;
37339;SDS011;23223;51.006;7.610;2022-08-19T07:22:01;14.70;;;12.85;;
37339;SDS011;23223;51.006;7.610;2022-08-19T07:24:29;18.42;;;16.30;;
37339;SDS011;23223;51.006;7.610;2022-08-19T07:26:58;22.70;;;16.60;;
37339;SDS011;23223;51.006;7.610;2022-08-19T07:29:31;19.40;;;14.93;;
37339;SDS011;23223;51.006;7.610;2022-08-19T07:31:58;14.52;;;12.55;;
37339;SDS011;23223;51.006;7.610;2022-08-19T07:34:25;16.65;;;15.00;;
37339;SDS011;23223;51.006;7.610;2022-08-19T07:36:54;24.15;;;18.83;;
37339;SDS011;23223;51.006;7.610;2022-08-19T07:39:22;21.23;;;14.07;;
37339;SDS011;23223;51.006;7.610;2022-08-19T07:41:50;19.80;;;15.57;;
37339;SDS011;23223;51.006;7.610;2022-08-19T07:44:17;19.73;;;12.75;;
37339;SDS011;23223;51.006;7.610;2022-08-19T07:46:46;26.25;;;18.13;;
37339;SDS011;23223;51.006;7.610;2022-08-19T07:49:16;19.58;;;15.73;;
37339;SDS011;23223;51.006;7.610;2022-08-19T07:51:45;17.50;;;13.02;;
37339;SDS011;23223;51.006;7.610;2022-08-19T07:54:15;17.40;;;11.93;;
37339;SDS011;23223;51.006;7.610;2022-08-19T07:56:42;14.27;;;11.75;;
37339;SDS011;23223;51.006;7.610;2022-08-19T07:59:08;17.50;;;13.95;;
37339;SDS011;23223;51.006;7.610;2022-08-19T08:01:35;18.70;;;13.88;;
37339;SDS011;23223;51.006;7.610;2022-08-19T08:04:01;15.15;;;11.95;;
37339;SDS011;23223;51.006;7.610;2022-08-19T08:06:46;21.58;;;17.40;;
37339;SDS011;23223;51.006;7.610;2022-08-19T08:09:36;18.35;;;14.57;;
37339;SDS011;23223;51.006;7.610;2022-08-19T08:12:08;19.48;;;16.23;;
37339;SDS011;23223;51.006;7.610;2022-08-19T08:14:42;16.63;;;12.68;;
37339;SDS011;23223;51.006;7.610;2022-08-19T08:17:09;23.23;;;14.38;;
37339;SDS011;23223;51.006;7.610;2022-08-19T08:19:36;19.42;;;15.52;;
37339;SDS011;23223;51.006;7.610;2022-08-19T08:22:03;18.25;;;13.70;;
37339;SDS011;23223;51.006;7.610;2022-08-19T08:24:31;18.58;;;16.67;;
37339;SDS011;23223;51.006;7.610;2022-08-19T08:26:58;12.52;;;8.93;;
37339;SDS011;23223;51.006;7.610;2022-08-19T08:29:28;16.80;;;15.02;;
37339;SDS011;23223;51.006;7.610;2022-08-19T08:31:55;20.55;;;11.43;;
37339;SDS011;23223;51.006;7.610;2022-08-19T08:34:22;16.83;;;14.50;;
37339;SDS011;23223;51.006;7.610;2022-08-19T08:36:48;13.98;;;11.02;;
37339;SDS011;23223;51.006;7.610;2022-08-19T08:39:17;13.50;;;12.13;;
37339;SDS011;23223;51.006;7.610;2022-08-19T08:44:43;16.40;;;14.45;;
37339;SDS011;23223;51.006;7.610;2022-08-19T08:47:23;9.13;;;7.07;;
37339;SDS011;23223;51.006;7.610;2022-08-19T08:49:55;14.98;;;13.00;;
37339;SDS011;23223;51.006;7.610;2022-08-19T08:52:36;9.25;;;6.72;;
37339;SDS011;23223;51.006;7.610;2022-08-19T08:55:11;12.15;;;9.75;;
37339;SDS011;23223;51.006;7.610;2022-08-19T08:57:44;14.45;;;10.75;;
37339;SDS011;23223;51.006;7.610;2022-08-19T09:11:55;7.90;;;5.00;;
37339;SDS011;23223;51.006;7.610;2022-08-19T09:16:59;11.35;;;10.20;;
37339;SDS011;23223;51.006;7.610;2022-08-19T09:19:29;15.68;;;12.02;;
37339;SDS011;23223;51.006;7.610;2022-08-19T09:21:55;10.60;;;7.65;;
37339;SDS011;23223;51.006;7.610;2022-08-19T09:24:21;8.52;;;7.75;;
37339;SDS011;23223;51.006;7.610;2022-08-19T09:26:47;11.60;;;9.60;;
37339;SDS011;23223;51.006;7.610;2022-08-19T09:29:13;7.95;;;6.30;;
37339;SDS011;23223;51.006;7.610;2022-08-19T09:31:40;20.40;;;14.52;;
37339;SDS011;23223;51.006;7.610;2022-08-19T09:34:05;9.77;;;8.77;;
37339;SDS011;23223;51.006;7.610;2022-08-19T09:36:31;12.10;;;10.95;;
37339;SDS011;23223;51.006;7.610;2022-08-19T09:38:58;9.35;;;8.43;;
37339;SDS011;23223;51.006;7.610;2022-08-19T09:41:25;10.68;;;6.32;;
37339;SDS011;23223;51.006;7.610;2022-08-19T09:43:53;13.32;;;9.43;;
37339;SDS011;23223;51.006;7.610;2022-08-19T09:46:23;13.77;;;10.50;;
37339;SDS011;23223;51.006;7.610;2022-08-19T09:48:51;12.05;;;10.55;;
37339;SDS011;23223;51.006;7.610;2022-08-19T09:51:22;10.15;;;8.93;;
37339;SDS011;23223;51.006;7.610;2022-08-19T09:53:50;10.70;;;9.43;;
37339;SDS011;23223;51.006;7.610;2022-08-19T09:56:17;10.60;;;8.85;;
37339;SDS011;23223;51.006;7.610;2022-08-19T09:58:45;8.55;;;5.97;;
37339;SDS011;23223;51.006;7.610;2022-08-19T10:01:18;11.02;;;9.82;;
37339;SDS011;23223;51.006;7.610;2022-08-19T10:03:47;11.02;;;5.97;;
37339;SDS011;23223;51.006;7.610;2022-08-19T10:06:16;10.38;;;8.07;;
37339;SDS011;23223;51.006;7.610;2022-08-19T10:08:43;7.32;;;6.63;;
37339;SDS011;23223;51.006;7.610;2022-08-19T10:11:09;9.10;;;8.00;;
37339;SDS011;23223;51.006;7.610;2022-08-19T10:13:36;12.05;;;6.75;;
37339;SDS011;23223;51.006;7.610;2022-08-19T10:16:06;10.68;;;7.13;;
37339;SDS011;23223;51.006;7.610;2022-08-19T10:18:34;7.55;;;6.80;;
37339;SDS011;23223;51.006;7.610;2022-08-19T10:23:35;9.40;;;5.32;;
37339;SDS011;23223;51.006;7.610;2022-08-19T10:26:03;8.68;;;7.10;;
37339;SDS011;23223;51.006;7.610;2022-08-19T10:28:32;6.45;;;5.53;;
37339;SDS011;23223;51.006;7.610;2022-08-19T10:31:02;8.70;;;7.07;;
37339;SDS011;23223;51.006;7.610;2022-08-19T10:33:31;7.10;;;5.32;;
37339;SDS011;23223;51.006;7.610;2022-08-19T10:35:58;5.07;;;4.53;;
37339;SDS011;23223;51.006;7.610;2022-08-19T10:38:29;11.93;;;6.25;;
37339;SDS011;23223;51.006;7.610;2022-08-19T10:40:56;5.93;;;5.40;;
37339;SDS011;23223;51.006;7.610;2022-08-19T10:43:23;6.80;;;5.25;;
37339;SDS011;23223;51.006;7.610;2022-08-19T10:45:53;5.55;;;4.50;;
37339;SDS011;23223;51.006;7.610;2022-08-19T10:48:21;6.75;;;5.72;;
37339;SDS011;23223;51.006;7.610;2022-08-19T10:50:48;6.78;;;5.32;;
37339;SDS011;23223;51.006;7.610;2022-08-19T10:53:32;6.63;;;5.07;;
37339;SDS011;23223;51.006;7.610;2022-08-19T10:55:57;4.63;;;4.18;;
37339;SDS011;23223;51.006;7.610;2022-08-19T10:58:42;5.00;;;4.57;;
37339;SDS011;23223;51.006;7.610;2022-08-19T11:01:08;5.85;;;5.03;;
37339;SDS011;23223;51.006;7.610;2022-08-19T11:03:34;5.72;;;5.10;;
37339;SDS011;23223;51.006;7.610;2022-08-19T11:06:00;8.27;;;7.30;;
37339;SDS011;23223;51.006;7.610;2022-08-19T11:08:28;6.88;;;6.15;;
37339;SDS011;23223;51.006;7.610;2022-08-19T11:10:57;8.15;;;5.22;;
37339;SDS011;23223;51.006;7.610;2022-08-19T11:13:35;7.15;;;6.38;;
37339;SDS011;23223;51.006;7.610;2022-08-19T11:16:06;4.57;;;4.10;;
37339;SDS011;23223;51.006;7.610;2022-08-19T11:18:34;9.60;;;8.60;;
37339;SDS011;23223;51.006;7.610;2022-08-19T11:21:08;6.95;;;6.25;;
37339;SDS011;23223;51.006;7.610;2022-08-19T11:23:36;8.80;;;7.45;;
37339;SDS011;23223;51.006;7.610;2022-08-19T11:26:03;9.43;;;5.88;;
37339;SDS011;23223;51.006;7.610;2022-08-19T11:28:28;6.63;;;6.03;;
37339;SDS011;23223;51.006;7.610;2022-08-19T11:30:54;7.60;;;6.38;;
37339;SDS011;23223;51.006;7.610;2022-08-19T11:33:20;6.50;;;4.88;;
37339;SDS011;23223;51.006;7.610;2022-08-19T11:35:46;5.20;;;4.18;;
37339;SDS011;23223;51.006;7.610;2022-08-19T11:38:12;6.13;;;4.95;;
37339;SDS011;23223;51.006;7.610;2022-08-19T11:40:40;7.93;;;6.45;;
37339;SDS011;23223;51.006;7.610;2022-08-19T11:43:07;7.78;;;6.97;;
37339;SDS011;23223;51.006;7.610;2022-08-19T11:45:34;11.60;;;6.55;;
37339;SDS011;23223;51.006;7.610;2022-08-19T11:48:00;6.20;;;4.57;;
37339;SDS011;23223;51.006;7.610;2022-08-19T11:50:27;6.80;;;5.90;;
37339;SDS011;23223;51.006;7.610;2022-08-19T11:52:55;5.80;;;4.40;;
37339;SDS011;23223;51.006;7.610;2022-08-19T11:55:22;8.25;;;7.43;;
37339;SDS011;23223;51.006;7.610;2022-08-19T11:57:48;9.93;;;3.97;;
37339;SDS011;23223;51.006;7.610;2022-08-19T12:00:15;11.57;;;6.93;;
37339;SDS011;23223;51.006;7.610;2022-08-19T12:02:41;10.20;;;9.20;;
37339;SDS011;23223;51.006;7.610;2022-08-19T12:05:07;15.95;;;8.05;;
37339;SDS011;23223;51.006;7.610;2022-08-19T12:07:33;11.40;;;8.20;;
37339;SDS011;23223;51.006;7.610;2022-08-19T12:09:59;8.55;;;7.75;;
37339;SDS011;23223;51.006;7.610;2022-08-19T12:12:26;12.18;;;8.95;;
37339;SDS011;23223;51.006;7.610;2022-08-19T12:14:53;15.48;;;9.35;;
37339;SDS011;23223;51.006;7.610;2022-08-19T12:17:25;6.10;;;5.47;;
37339;SDS011;23223;51.006;7.610;2022-08-19T12:19:52;13.27;;;9.32;;
37339;SDS011;23223;51.006;7.610;2022-08-19T12:22:18;11.93;;;9.05;;
37339;SDS011;23223;51.006;7.610;2022-08-19T12:24:45;6.40;;;5.65;;
37339;SDS011;23223;51.006;7.610;2022-08-19T12:27:11;7.30;;;6.25;;
37339;SDS011;23223;51.006;7.610;2022-08-19T12:29:37;8.60;;;7.70;;
37339;SDS011;23223;51.006;7.610;2022-08-19T12:32:05;14.13;;;10.63;;
37339;SDS011;23223;51.006;7.610;2022-08-19T12:34:32;12.57;;;8.93;;
37339;SDS011;23223;51.006;7.610;2022-08-19T12:37:00;8.80;;;7.57;;
37339;SDS011;23223;51.006;7.610;2022-08-19T12:39:27;9.30;;;6.20;;
37339;SDS011;23223;51.006;7.610;2022-08-19T12:41:55;8.07;;;5.50;;
37339;SDS011;23223;51.006;7.610;2022-08-19T12:44:22;8.82;;;5.50;;
37339;SDS011;23223;51.006;7.610;2022-08-19T12:46:48;4.55;;;3.35;;
37339;SDS011;23223;51.006;7.610;2022-08-19T12:49:18;5.88;;;5.30;;
37339;SDS011;23223;51.006;7.610;2022-08-19T12:51:44;9.98;;;8.63;;
37339;SDS011;23223;51.006;7.610;2022-08-19T12:54:11;9.13;;;6.35;;
37339;SDS011;23223;51.006;7.610;2022-08-19T12:56:37;4.72;;;4.13;;
37339;SDS011;23223;51.006;7.610;2022-08-19T12:59:03;5.97;;;5.07;;
37339;SDS011;23223;51.006;7.610;2022-08-19T13:01:29;5.20;;;4.68;;
37339;SDS011;23223;51.006;7.610;2022-08-19T13:03:58;7.05;;;6.10;;
37339;SDS011;23223;51.006;7.610;2022-08-19T13:06:25;6.40;;;4.10;;
37339;SDS011;23223;51.006;7.610;2022-08-19T13:08:51;7.28;;;4.85;;
37339;SDS011;23223;51.006;7.610;2022-08-19T13:11:19;6.13;;;4.10;;
37339;SDS011;23223;51.006;7.610;2022-08-19T13:13:46;5.25;;;4.78;;
37339;SDS011;23223;51.006;7.610;2022-08-19T13:16:15;6.13;;;4.45;;
37339;SDS011;23223;51.006;7.610;2022-08-19T13:18:42;6.07;;;4.65;;
37339;SDS011;23223;51.006;7.610;2022-08-19T13:21:10;5.88;;;4.22;;
37339;SDS011;23223;51.006;7.610;2022-08-19T13:23:39;9.85;;;4.25;;
37339;SDS011;23223;51.006;7.610;2022-08-19T13:26:06;7.10;;;4.72;;
37339;SDS011;23223;51.006;7.610;2022-08-19T13:28:33;4.50;;;4.10;;
37339;SDS011;23223;51.006;7.610;2022-08-19T13:31:18;5.30;;;3.40;;
37339;SDS011;23223;51.006;7.610;2022-08-19T13:34:05;7.65;;;4.32;;
37339;SDS011;23223;51.006;7.610;2022-08-19T13:36:31;6.22;;;4.20;;
37339;SDS011;23223;51.006;7.610;2022-08-19T13:38:58;6.32;;;3.78;;
37339;SDS011;23223;51.006;7.610;2022-08-19T13:41:24;3.90;;;3.22;;
37339;SDS011;23223;51.006;7.610;2022-08-19T13:43:51;9.98;;;5.13;;
37339;SDS011;23223;51.006;7.610;2022-08-19T13:46:17;10.73;;;5.57;;
37339;SDS011;23223;51.006;7.610;2022-08-19T13:48:45;4.10;;;3.58;;
37339;SDS011;23223;51.006;7.610;2022-08-19T13:51:13;5.35;;;4.60;;
37339;SDS011;23223;51.006;7.610;2022-08-19T13:53:41;8.85;;;4.93;;
37339;SDS011;23223;51.006;7.610;2022-08-19T13:56:12;5.25;;;4.47;;
37339;SDS011;23223;51.006;7.610;2022-08-19T13:58:42;7.30;;;4.35;;
37339;SDS011;23223;51.006;7.610;2022-08-19T14:01:09;5.35;;;4.55;;
37339;SDS011;23223;51.006;7.610;2022-08-19T14:03:35;7.22;;;4.45;;
37339;SDS011;23223;51.006;7.610;2022-08-19T14:06:01;5.13;;;4.60;;
37339;SDS011;23223;51.006;7.610;2022-08-19T14:08:27;5.60;;;4.95;;
37339;SDS011;23223;51.006;7.610;2022-08-19T14:10:54;5.28;;;4.78;;
37339;SDS011;23223;51.006;7.610;2022-08-19T14:13:21;4.88;;;4.28;;
37339;SDS011;23223;51.006;7.610;2022-08-19T14:15:48;4.97;;;3.53;;
37339;SDS011;23223;51.006;7.610;2022-08-19T14:18:14;8.00;;;5.70;;
37339;SDS011;23223;51.006;7.610;2022-08-19T14:20:42;4.88;;;4.38;;
37339;SDS011;23223;51.006;7.610;2022-08-19T14:23:09;6.70;;;5.07;;
37339;SDS011;23223;51.006;7.610;2022-08-19T14:25:38;9.63;;;4.80;;
37339;SDS011;23223;51.006;7.610;2022-08-19T14:28:04;8.23;;;5.18;;
37339;SDS011;23223;51.006;7.610;2022-08-19T14:30:33;5.43;;;4.40;;
37339;SDS011;23223;51.006;7.610;2022-08-19T14:33:03;5.45;;;4.20;;
37339;SDS011;23223;51.006;7.610;2022-08-19T14:35:30;5.43;;;3.92;;
37339;SDS011;23223;51.006;7.610;2022-08-19T14:38:00;4.40;;;3.90;;
37339;SDS011;23223;51.006;7.610;2022-08-19T14:40:28;5.78;;;5.13;;
37339;SDS011;23223;51.006;7.610;2022-08-19T14:42:57;5.35;;;4.25;;
37339;SDS011;23223;51.006;7.610;2022-08-19T14:45:29;6.38;;;4.00;;
37339;SDS011;23223;51.006;7.610;2022-08-19T14:48:00;5.40;;;3.83;;
37339;SDS011;23223;51.006;7.610;2022-08-19T14:50:27;4.60;;;3.20;;
37339;SDS011;23223;51.006;7.610;2022-08-19T14:52:58;5.47;;;4.30;;
37339;SDS011;23223;51.006;7.610;2022-08-19T14:55:25;8.52;;;3.67;;
37339;SDS011;23223;51.006;7.610;2022-08-19T14:57:52;5.57;;;3.30;;
37339;SDS011;23223;51.006;7.610;2022-08-19T15:00:18;3.80;;;3.50;;
37339;SDS011;23223;51.006;7.610;2022-08-19T15:02:44;5.43;;;2.83;;